Question-and-Answer Resource for the Building Energy Modeling Community
Get started with the Help page
Ask Your Question

Eric Ringold's profile - karma

Eric Ringold's karma change log

10 0 Time series visualization tools? ( 2019-03-11 18:30:42 -0500 )

10 0 Is there a simplified way to model the ground-surface-contact for a building in OpenStudio? ( 2019-03-11 03:22:58 -0500 )

10 0 Add return fan in OS ( 2019-03-05 15:07:28 -0500 )

10 0 Standard Effective Temperature (SET) outputs from Energyplus ( 2019-02-18 07:33:07 -0500 )

10 0 How can I add a setpoint manager to DX:CoolingCoil outlet node in a ruby script? ( 2019-02-07 07:38:10 -0500 )

15 0 How can I add a setpoint manager to DX:CoolingCoil outlet node in a ruby script? ( 2019-02-07 01:12:20 -0500 )

10 0 How can I add a setpoint manager to DX:CoolingCoil outlet node in a ruby script? ( 2019-02-07 01:03:41 -0500 )

10 0 How can I add a setpoint manager to DX:CoolingCoil outlet node in a ruby script? ( 2019-02-06 18:43:38 -0500 )

10 0 VRF model from OS to E+ ( 2019-02-04 15:18:18 -0500 )

10 0 Where can I find the Airflow Network group? ( 2019-01-28 17:20:15 -0500 )

10 0 Coordinates in Openstudio Geometry are mirrored ( 2019-01-23 14:22:51 -0500 )

15 0 Coordinates in Openstudio Geometry are mirrored ( 2019-01-23 10:13:17 -0500 )

10 0 Coordinates in Openstudio Geometry are mirrored ( 2019-01-23 10:13:14 -0500 )

10 0 Coordinates in Openstudio Geometry are mirrored ( 2019-01-23 09:47:52 -0500 )

10 0 What to do with Radiation system condensation ( 2019-01-23 09:22:24 -0500 )

10 0 Massive run files ( 2019-01-10 14:44:48 -0500 )

10 0 Massive run files ( 2019-01-10 14:14:52 -0500 )

10 0 Massive run files ( 2019-01-10 14:11:50 -0500 )

10 0 Massive run files ( 2019-01-10 13:45:56 -0500 )

10 0 Headered Pumps Inputs ( 2018-11-21 07:47:26 -0500 )

10 0 What's the difference between "'Facility" and "Building" in EnergyPlus? ( 2018-11-07 09:37:41 -0500 )

10 0 Representing Distribution Losses ( 2018-10-29 01:52:59 -0500 )

15 0 Representing Distribution Losses ( 2018-10-28 17:11:02 -0500 )

10 0 Representing Distribution Losses ( 2018-10-28 17:09:43 -0500 )

10 0 Humidity control makes OS simulation fail ( 2018-10-25 13:06:48 -0500 )

10 0 Representing Distribution Losses ( 2018-10-19 08:17:00 -0500 )

10 0 Representing Distribution Losses ( 2018-10-18 11:25:09 -0500 )

10 0 Where are the default chiller curve coefficient coming from in OS? ( 2018-10-18 08:24:10 -0500 )

10 0 Humidity control makes OS simulation fail ( 2018-10-14 16:12:26 -0500 )

10 0 No internal source construction ( 2018-10-02 17:30:41 -0500 )

10 0 Airport Energy Modeling ( 2018-09-20 15:31:14 -0500 )

10 0 OpenStudio System Sizing Settings ( 2018-09-19 22:52:33 -0500 )

15 0 Airport Energy Modeling ( 2018-09-19 02:41:36 -0500 )

10 0 Airport Energy Modeling ( 2018-09-18 13:33:09 -0500 )

10 0 How to debug OpenStudio measure ( 2018-09-15 19:33:44 -0500 )

10 0 Unable to add setpoint manager ( 2018-09-14 15:46:47 -0500 )

10 0 load custom scripts in Sketchup ( 2018-09-14 14:48:50 -0500 )

10 0 load custom scripts in Sketchup ( 2018-09-14 11:11:32 -0500 )

15 0 load custom scripts in Sketchup ( 2018-09-14 11:07:46 -0500 )

10 0 load custom scripts in Sketchup ( 2018-09-14 11:07:46 -0500 )

10 0 Unable to add setpoint manager ( 2018-09-14 10:36:32 -0500 )

10 0 load custom scripts in Sketchup ( 2018-09-14 10:36:09 -0500 )

10 0 Error when Modelling a Low Temperature Radiant Floor ( 2018-09-13 17:37:32 -0500 )

10 0 Modeling Run-around Loop Heat Recovery in EnergyPlus ( 2018-08-27 11:41:43 -0500 )

15 0 EnergyPlus Measure to import BSDF-idf from LBNL WINDOW ( 2018-08-24 04:24:08 -0500 )

10 0 HAMT: how does it split surfaces into cells? ( 2018-08-22 21:15:05 -0500 )

0 -10 HAMT: how does it split surfaces into cells? ( 2018-08-22 21:15:03 -0500 )

10 0 HAMT: how does it split surfaces into cells? ( 2018-08-22 21:14:55 -0500 )

15 0 HAMT: how does it split surfaces into cells? ( 2018-08-22 21:14:54 -0500 )

2 0 HAMT: how does it split surfaces into cells? ( 2018-08-22 21:14:52 -0500 )

0 2 HAMT: how does it split surfaces into cells? ( 2018-08-22 21:14:50 -0500 )

10 0 HAMT: how does it split surfaces into cells? ( 2018-08-22 13:00:11 -0500 )

10 0 HAMT: how does it split surfaces into cells? ( 2018-08-22 10:28:09 -0500 )

10 0 Headered Pumps Inputs ( 2018-08-22 07:49:43 -0500 )

10 0 What does multiplier means for loads and sub surfaces in Openstudio ( 2018-08-20 20:31:28 -0500 )

10 0 IdealAir Heating and Cooling Energy Use at the Same Time? ( 2018-08-17 00:16:23 -0500 )

10 0 Humidity control makes OS simulation fail ( 2018-08-15 12:03:10 -0500 )

10 0 Can I import an entire HVAC system from EnergyPlus to OpenStudio? ( 2018-08-14 16:51:11 -0500 )

10 0 OS 2.5.1 Baseline Measure Error ( 2018-08-09 09:26:31 -0500 )

10 0 Humidity control makes OS simulation fail ( 2018-08-07 14:18:02 -0500 )

10 0 What's the difference between "'Facility" and "Building" in EnergyPlus? ( 2018-08-02 00:12:03 -0500 )

10 0 DView Loading Data Extremely Slowly ( 2018-07-31 09:45:41 -0500 )

10 0 EnergyPlus Measure to import BSDF-idf from LBNL WINDOW ( 2018-07-27 13:30:59 -0500 )

10 0 OpenStudio error message regarding zone sizing ( 2018-07-23 13:43:35 -0500 )

10 0 Any documentation explaining detail about create_prm_baseline_building? ( 2018-07-23 07:25:03 -0500 )

10 0 Any documentation explaining detail about create_prm_baseline_building? ( 2018-07-23 06:29:08 -0500 )

10 0 Any documentation explaining detail about create_prm_baseline_building? ( 2018-07-22 10:54:32 -0500 )

15 0 Any documentation explaining detail about create_prm_baseline_building? ( 2018-07-22 02:43:23 -0500 )

10 0 Any documentation explaining detail about create_prm_baseline_building? ( 2018-07-22 02:43:22 -0500 )

10 0 Overlapping heating and cooling control temps in radiant system ( 2018-07-15 05:16:44 -0500 )

10 0 Extracting hourly time step data from SQL file ( 2018-07-02 12:39:55 -0500 )

15 0 Extracting hourly time step data from SQL file ( 2018-07-02 12:39:49 -0500 )

10 0 Extracting hourly time step data from SQL file ( 2018-07-02 10:58:57 -0500 )

10 0 The measure I wrote doesn't work ( 2018-07-02 06:38:19 -0500 )

10 0 Is there a simplified way to model the ground-surface-contact for a building in OpenStudio? ( 2018-07-01 03:19:35 -0500 )

10 0 The measure I wrote doesn't work ( 2018-06-29 21:14:03 -0500 )

10 0 The measure I wrote doesn't work ( 2018-06-29 09:13:41 -0500 )

15 0 The measure I wrote doesn't work ( 2018-06-28 20:10:47 -0500 )

0 -15 The measure I wrote doesn't work ( 2018-06-28 20:10:43 -0500 )

15 0 The measure I wrote doesn't work ( 2018-06-28 20:01:17 -0500 )

10 0 The measure I wrote doesn't work ( 2018-06-28 16:59:18 -0500 )

10 0 The measure I wrote doesn't work ( 2018-06-28 14:12:15 -0500 )

15 0 OS 2.5.1 Baseline Measure Error ( 2018-06-20 15:06:43 -0500 )

0 -15 OS 2.5.1 Baseline Measure Error ( 2018-06-20 15:06:36 -0500 )

15 0 OS 2.5.1 Baseline Measure Error ( 2018-06-20 15:06:36 -0500 )

10 0 OS 2.5.1 Baseline Measure Error ( 2018-06-20 14:08:13 -0500 )

10 0 OS 2.5.1 Baseline Measure Error ( 2018-06-20 12:30:00 -0500 )

10 0 Is there a simplified way to model the ground-surface-contact for a building in OpenStudio? ( 2018-06-13 15:39:35 -0500 )

0 -15 OpenStudio Results - Plant Loop Details correct? ( 2018-06-07 06:57:02 -0500 )

15 0 OpenStudio Results - Plant Loop Details correct? ( 2018-06-07 06:57:01 -0500 )

15 0 Set Output Table to IP Units ( 2018-06-07 06:52:03 -0500 )

15 0 ZoneHVAC_TerminalUnit_VariableRefrigerantFlow supplyAirFan in OS measure ( 2018-06-07 06:46:08 -0500 )

15 0 How to remove construction from surfaces by measures? ( 2018-05-30 20:38:27 -0500 )

10 0 How to remove construction from surfaces by measures? ( 2018-05-30 11:58:56 -0500 )

10 0 How to remove construction from surfaces by measures? ( 2018-05-30 10:27:10 -0500 )

15 0 Get district cooling consumption even though I didn't use district cooling component ( 2018-05-29 22:54:26 -0500 )

10 0 Get district cooling consumption even though I didn't use district cooling component ( 2018-05-29 22:54:25 -0500 )

10 0 No internal source construction ( 2018-05-22 11:10:28 -0500 )

10 0 No internal source construction ( 2018-05-21 15:02:17 -0500 )

10 0 No internal source construction ( 2018-05-21 13:02:27 -0500 )